Ashton, NE (68817)

10:12 PM CDT on September 01, 2014 (GMT -0500)
Central | Change Station
CLOSE
Current Station
Personal Weather Station
Location: Loup City, NE
Elevation: 2090 ft
Nearby Weather Stations

Elev 2090 ft 41.28 °N, 98.97 °W | Updated 2 minutes ago

Rain
Rain
57.9 °F
Feels Like 57.9 °F
N
2.2
Wind Variable Wind from ENE

Today
High -- | Low -- °F
--% Chance of Precip.
Yesterday
High -- | Low -- °F
Precip. -- in
7:01 AM 8:08 PM
Waxing Crescent, 47% visible
Pressure 29.94 in
Visibility 10.0 miles
Clouds Few 5000 ft
Scattered Clouds 7000 ft
Scattered Clouds 8000 ft
Dew Point 56 °F
Humidity 92%
Rainfall 0.00 in
Snow Depth Not available.
UV 0 out of 12
Pollen 8.20 out of 12
Air Quality Not available.
Flu Activity Not available.
METAR KODX 020253Z AUTO 09004KT 10SM FEW050 SCT070 SCT080 14/13 A2994 RMK AO2 LTG DSNT NE AND E RAB00B12E52 TSB05E38 SLP137 P0041 60041 T01390128 $

More Conditions Fewer Conditions

Pressure 29.94 in
Visibility 10.0 miles
Clouds Few 5000 ft
Scattered Clouds 7000 ft
Scattered Clouds 8000 ft
Dew Point 56 °F
Humidity 92%
Rainfall 0.00 in
Snow Depth Not available.
UV 0 out of 12
Pollen 8.20 out of 12
Air Quality Not available.
Flu Activity Not available.
METAR KODX 020253Z AUTO 09004KT 10SM FEW050 SCT070 SCT080 14/13 A2994 RMK AO2 LTG DSNT NE AND E RAB00B12E52 TSB05E38 SLP137 P0041 60041 T01390128 $

More Conditions Fewer Conditions

10-Day Weather Forecast

Almanac

Astronomy

Sep. 01, 2014 Rise Set
Actual Time 7:01 AM CDT 8:08 PM CDT
Civil Twilight 6:33 AM CDT 8:36 PM CDT
Nautical Twilight 5:59 AM CDT 9:10 PM CDT
Astronomical Twilight 5:23 AM CDT 9:45 PM CDT
Moon 1:53 PM CDT (9/1) No Moon Set
Length of Visible Light 14h 03m
Length of Day
13h 06m
Tomorrow will be 2m 39s shorter.
Waxing Crescent, 47% of the Moon is Illuminated
Today
Waxing Crescent
Sep 2
First Quarter
Sep 8
Full
Sep 15
Last Quarter
Sep 24
New

Today's Extremes

State Highs State Lows

Community

WunderPhotos

Upload Photos

1,749,539 photos uploaded!

WunderBlogs® & News

Nearby

Snow Depth

Station Depth Elevation
No new snow has been reported.

Earthquake Activity

City Distance Mag. Time & Date
No recent earthquake activity has been reported nearby.
Minimum magnitude displayed is 2.5.

Coastal Water Temperatures

Place Temperature
No Stations Reporting

Nearby Weather Stations